Dingus, Kentucky
Current Conditions -  °F | °C
As of 12:50 PM on Friday 21 Nov 2014 (Local Time) from KSYM Reporting Station
Clear Clear  
Wind Chill: 34°   Ceiling: Unl
Heat Index: 34°   Visibility: 10mi
Dew Point:   Wind: 0mph
Humidity: 32%   Direction: NA
Pressure: 30.51"   Gusts: NA
Location:  37.937°N, 83.2694°W
Report Text: KSYM 211750Z AUTO 00000KT 10SM CLR 01/M14 A3051 RMK AO2
Loading
Personal Weather Stations






























Interactive Weather Map New forecast layout! Learn more

10-Day Weather Forecast

Advertisements
Track Severe Weather on mobile